createdAt,value
2022-08-25T00:00:49.657Z,7.05
2022-08-25T00:03:17.098Z,7.35
2022-08-25T00:05:43.679Z,7.10
2022-08-25T00:08:10.229Z,7.45
2022-08-25T00:10:38.811Z,7.72
2022-08-25T00:13:06.829Z,7.47
2022-08-25T00:15:33.937Z,8.00
2022-08-25T00:18:01.246Z,7.87
2022-08-25T00:20:29.391Z,8.13
2022-08-25T00:22:56.221Z,8.13
2022-08-25T00:25:23.673Z,8.70
2022-08-25T00:27:51.482Z,7.88
2022-08-25T00:30:18.497Z,8.27
2022-08-25T00:32:51.484Z,8.32
2022-08-25T00:35:25.342Z,7.97
2022-08-25T00:37:51.815Z,8.50
2022-08-25T00:40:18.551Z,8.32
2022-08-25T00:42:45.348Z,8.07
2022-08-25T00:45:11.927Z,8.73
2022-08-25T00:47:38.490Z,8.25
2022-08-25T00:50:07.358Z,8.40
2022-08-25T00:52:43.691Z,8.93
2022-08-25T00:55:42.184Z,8.60
2022-08-25T00:58:16.426Z,9.18
2022-08-25T01:00:47.223Z,8.48
2022-08-25T01:03:13.808Z,8.35
2022-08-25T01:05:43.157Z,8.20
2022-08-25T01:08:10.666Z,9.03
2022-08-25T01:10:41.351Z,8.38
2022-08-25T01:13:25.531Z,9.40
2022-08-25T01:15:55.849Z,9.13
2022-08-25T01:18:23.371Z,8.57
2022-08-25T01:20:54.345Z,8.63
2022-08-25T01:23:22.759Z,8.13
2022-08-25T01:25:59.480Z,8.73
2022-08-25T01:28:26.072Z,8.45
2022-08-25T01:30:52.936Z,8.35
2022-08-25T01:33:20.395Z,7.97
2022-08-25T01:35:47.712Z,7.00
2022-08-25T01:38:15.234Z,6.65
2022-08-25T01:40:45.547Z,7.10
2022-08-25T01:43:15.074Z,6.35
2022-08-25T01:45:46.486Z,6.33
2022-08-25T01:48:14.201Z,7.55
2022-08-25T01:50:42.212Z,6.38
2022-08-25T01:53:32.352Z,6.70
2022-08-25T01:56:02.824Z,6.72
2022-08-25T01:58:35.945Z,7.20
2022-08-25T02:01:06.167Z,8.05
2022-08-25T02:03:32.807Z,8.00
2022-08-25T02:06:01.260Z,8.80
2022-08-25T02:08:30.846Z,8.50
2022-08-25T02:10:57.465Z,8.43
2022-08-25T02:13:26.867Z,7.38
2022-08-25T02:16:00.765Z,6.80
2022-08-25T02:18:27.307Z,7.32
2022-08-25T02:20:54.204Z,6.47
2022-08-25T02:23:21.064Z,5.50
2022-08-25T02:25:47.585Z,4.90
2022-08-25T02:28:14.149Z,5.05
2022-08-25T02:30:42.727Z,4.35
2022-08-25T02:33:10.066Z,3.92
2022-08-25T02:35:37.321Z,3.60
2022-08-25T02:38:04.871Z,3.67
2022-08-25T02:40:31.637Z,4.00
2022-08-25T02:42:58.236Z,3.88
2022-08-25T02:45:24.742Z,4.30
2022-08-25T02:47:51.596Z,3.93
2022-08-25T02:50:18.267Z,3.78
2022-08-25T02:52:44.870Z,3.78
2022-08-25T02:55:14.264Z,3.60
2022-08-25T02:57:42.238Z,3.42
2022-08-25T03:00:11.310Z,3.60
2022-08-25T03:02:41.380Z,3.63
2022-08-25T03:05:09.678Z,3.40
2022-08-25T03:07:38.390Z,3.47
2022-08-25T03:10:09.537Z,3.53
2022-08-25T03:12:36.701Z,3.80
2022-08-25T03:15:04.347Z,3.67
2022-08-25T03:17:36.730Z,3.72
2022-08-25T03:20:05.853Z,3.65
2022-08-25T03:22:33.184Z,4.07
2022-08-25T03:25:23.481Z,3.63
2022-08-25T03:27:51.623Z,3.72
2022-08-25T03:30:18.776Z,4.05
2022-08-25T03:32:45.381Z,3.65
2022-08-25T03:35:12.036Z,3.63
2022-08-25T03:37:38.952Z,3.30
2022-08-25T03:40:09.115Z,3.50
2022-08-25T03:42:45.159Z,3.78
2022-08-25T03:45:14.480Z,3.53
2022-08-25T03:47:41.060Z,3.42
2022-08-25T03:50:10.823Z,3.17
2022-08-25T03:52:41.821Z,3.60
2022-08-25T03:55:11.712Z,3.58
2022-08-25T03:57:38.351Z,3.17
2022-08-25T04:00:09.812Z,3.47
2022-08-25T04:02:36.378Z,3.40
2022-08-25T04:05:03.038Z,3.85
2022-08-25T04:07:30.396Z,3.78
2022-08-25T04:09:56.916Z,3.75
2022-08-25T04:12:24.465Z,3.63
2022-08-25T04:14:51.623Z,3.70
2022-08-25T04:17:18.214Z,4.00
2022-08-25T04:19:45.218Z,3.80
2022-08-25T04:22:11.953Z,3.97
2022-08-25T04:24:39.922Z,3.40
2022-08-25T04:27:06.443Z,3.90
2022-08-25T04:29:33.583Z,3.90
2022-08-25T04:32:00.216Z,3.22
2022-08-25T04:34:28.928Z,3.80
2022-08-25T04:36:56.608Z,4.07
2022-08-25T04:39:23.553Z,3.90
2022-08-25T04:41:50.951Z,3.50
2022-08-25T04:44:18.238Z,3.85
2022-08-25T04:46:44.893Z,3.83
2022-08-25T04:49:11.445Z,4.28
2022-08-25T04:51:40.673Z,4.17
2022-08-25T04:54:11.653Z,4.20
2022-08-25T04:56:41.065Z,4.10
2022-08-25T04:59:10.701Z,3.92
2022-08-25T05:01:37.765Z,4.10
2022-08-25T05:04:07.296Z,4.03
2022-08-25T05:06:34.520Z,4.70
2022-08-25T05:09:01.677Z,4.55
2022-08-25T05:11:29.058Z,4.57
2022-08-25T05:13:56.973Z,3.95
2022-08-25T05:16:25.801Z,3.73
2022-08-25T05:18:53.721Z,3.78
2022-08-25T05:21:24.133Z,3.85
2022-08-25T05:23:54.718Z,3.85
2022-08-25T05:26:22.182Z,4.28
2022-08-25T05:28:50.935Z,4.23
2022-08-25T05:31:18.943Z,3.30
2022-08-25T05:33:46.078Z,3.50
2022-08-25T05:36:13.491Z,3.75
2022-08-25T05:38:41.745Z,3.85
2022-08-25T05:41:12.955Z,3.47
2022-08-25T05:43:41.127Z,3.80
2022-08-25T05:46:08.410Z,3.33
2022-08-25T05:48:35.618Z,3.30
2022-08-25T05:51:03.918Z,3.60
2022-08-25T05:53:31.094Z,3.43
2022-08-25T05:56:01.058Z,3.60
2022-08-25T05:58:29.510Z,3.28
2022-08-25T06:00:58.445Z,3.55
2022-08-25T06:03:25.031Z,3.50
2022-08-25T06:05:51.578Z,3.60
2022-08-25T06:08:19.500Z,3.33
2022-08-25T06:10:45.978Z,3.60
2022-08-25T06:13:12.485Z,3.75
2022-08-25T06:15:39.015Z,3.45
2022-08-25T06:18:05.704Z,3.53
2022-08-25T06:20:32.516Z,3.38
2022-08-25T06:22:59.551Z,3.38
2022-08-25T06:25:27.063Z,3.58
2022-08-25T06:27:54.780Z,3.30
2022-08-25T06:30:24.513Z,4.40
2022-08-25T06:32:55.724Z,3.10
2022-08-25T06:35:22.851Z,3.28
2022-08-25T06:37:49.374Z,3.17
2022-08-25T06:40:16.517Z,3.13
2022-08-25T06:42:43.401Z,3.80
2022-08-25T06:45:10.301Z,3.97
2022-08-25T06:47:37.645Z,3.50
2022-08-25T06:50:05.002Z,2.75
2022-08-25T06:52:31.831Z,3.20
2022-08-25T06:54:58.572Z,2.97
2022-08-25T06:57:25.369Z,3.22
2022-08-25T06:59:53.659Z,3.20
2022-08-25T07:02:22.214Z,3.88
2022-08-25T07:04:49.498Z,3.30
2022-08-25T07:07:15.993Z,3.67
2022-08-25T07:09:43.037Z,3.55
2022-08-25T07:12:09.841Z,3.58
2022-08-25T07:14:36.974Z,3.42
2022-08-25T07:17:10.565Z,3.22
2022-08-25T07:19:39.180Z,3.50
2022-08-25T07:22:07.711Z,3.35
2022-08-25T07:24:35.910Z,3.28
2022-08-25T07:27:02.564Z,3.75
2022-08-25T07:29:32.565Z,3.70
2022-08-25T07:32:03.704Z,5.37
2022-08-25T07:34:52.300Z,4.13
2022-08-25T07:37:38.323Z,3.58
2022-08-25T07:40:08.061Z,3.58
2022-08-25T07:42:35.967Z,3.50
2022-08-25T07:45:05.492Z,3.30
2022-08-25T07:47:33.978Z,3.17
2022-08-25T07:50:00.754Z,3.38
2022-08-25T07:52:28.181Z,3.28
2022-08-25T07:54:55.467Z,3.38
2022-08-25T07:57:23.955Z,3.67
2022-08-25T07:59:50.615Z,3.40
2022-08-25T08:02:19.498Z,3.95
2022-08-25T08:04:51.882Z,3.45
2022-08-25T08:07:25.844Z,2.97
2022-08-25T08:12:56.914Z,3.00
2022-08-25T08:15:23.522Z,3.53
2022-08-25T08:17:50.017Z,3.17
2022-08-25T08:20:17.699Z,3.30
2022-08-25T08:22:49.940Z,3.03
2022-08-25T08:25:18.727Z,3.00
2022-08-25T08:27:48.809Z,2.70
2022-08-25T08:30:15.305Z,4.47
2022-08-25T08:33:08.220Z,2.88
2022-08-25T08:35:28.695Z,2.90
2022-08-25T08:37:55.233Z,2.83
2022-08-25T08:40:22.201Z,2.70
2022-08-25T08:42:58.645Z,3.00
2022-08-25T08:45:51.960Z,3.05
2022-08-25T08:48:43.094Z,2.90
2022-08-25T08:51:32.677Z,2.88
2022-08-25T08:54:16.622Z,2.60
2022-08-25T08:56:48.205Z,3.00
2022-08-25T08:59:21.675Z,2.88
2022-08-25T09:02:37.886Z,2.83
2022-08-25T09:05:11.627Z,2.75
2022-08-25T09:07:48.350Z,3.42
2022-08-25T09:10:19.321Z,2.50
2022-08-25T09:12:55.132Z,2.67
2022-08-25T09:15:24.742Z,2.83
2022-08-25T09:18:15.022Z,2.30
2022-08-25T09:21:03.877Z,2.90
2022-08-25T09:23:58.739Z,2.50
2022-08-25T09:26:36.327Z,2.78
2022-08-25T09:29:16.823Z,3.27
2022-08-25T09:31:44.828Z,2.70
2022-08-25T09:34:20.408Z,3.00
2022-08-25T09:36:48.612Z,3.30
2022-08-25T09:39:15.502Z,2.50
2022-08-25T09:41:56.064Z,3.20
2022-08-25T09:44:31.717Z,2.45
2022-08-25T09:47:02.418Z,2.53
2022-08-25T09:49:35.510Z,3.28
2022-08-25T09:52:28.241Z,2.72
2022-08-25T09:54:56.779Z,2.23
2022-08-25T09:57:57.508Z,2.40
2022-08-25T10:00:34.818Z,2.63
2022-08-25T10:03:12.118Z,2.40
2022-08-25T10:05:58.798Z,2.42
2022-08-25T10:08:31.382Z,2.20
2022-08-25T10:10:59.878Z,2.70
2022-08-25T10:13:43.815Z,2.25
2022-08-25T10:16:30.843Z,2.40
2022-08-25T10:19:23.976Z,2.10
2022-08-25T10:22:10.861Z,2.07
2022-08-25T10:24:41.020Z,2.25
2022-08-25T10:27:13.537Z,2.08
2022-08-25T10:30:08.162Z,2.30
2022-08-25T10:33:02.469Z,2.25
2022-08-25T10:35:47.706Z,2.13
2022-08-25T10:38:38.577Z,2.45
2022-08-25T10:41:22.372Z,2.15
2022-08-25T10:44:03.881Z,2.60
2022-08-25T10:46:52.269Z,2.60
2022-08-25T10:49:47.622Z,2.00
2022-08-25T10:52:44.622Z,2.13
2022-08-25T10:55:48.689Z,1.80
2022-08-25T10:58:16.925Z,1.63
2022-08-25T11:01:03.652Z,1.92
2022-08-25T11:03:44.570Z,1.83
2022-08-25T11:06:18.942Z,1.90
2022-08-25T11:09:04.104Z,1.73
2022-08-25T11:11:40.615Z,1.60
2022-08-25T11:14:14.755Z,1.60
2022-08-25T11:16:48.432Z,1.60
2022-08-25T11:19:26.782Z,2.13
2022-08-25T11:22:19.369Z,1.27
2022-08-25T11:24:58.322Z,1.58
2022-08-25T11:27:34.951Z,1.80
2022-08-25T11:30:13.646Z,1.40
2022-08-25T11:32:44.466Z,1.70
2022-08-25T11:35:13.587Z,1.67
2022-08-25T11:38:17.345Z,1.45
2022-08-25T11:40:55.687Z,1.63
2022-08-25T11:43:29.357Z,1.50
2022-08-25T11:46:59.197Z,1.60
2022-08-25T11:49:52.715Z,1.40
2022-08-25T11:52:34.948Z,1.30
2022-08-25T11:55:29.893Z,1.40
2022-08-25T11:58:28.019Z,1.50
2022-08-25T12:01:02.319Z,1.38
2022-08-25T12:03:31.935Z,1.63
2022-08-25T12:06:18.712Z,1.40
2022-08-25T12:09:10.865Z,1.60
2022-08-25T12:11:58.058Z,1.30
2022-08-25T12:14:24.663Z,1.17
2022-08-25T12:16:54.952Z,2.38
2022-08-25T12:19:36.641Z,1.50
2022-08-25T12:22:04.535Z,1.45
2022-08-25T12:24:48.186Z,1.30
2022-08-25T12:27:37.119Z,1.60
2022-08-25T12:30:26.276Z,1.40
2022-08-25T12:33:06.496Z,1.23
2022-08-25T12:35:53.526Z,1.55
2022-08-25T12:38:47.285Z,1.10
2022-08-25T12:41:27.428Z,1.48
2022-08-25T12:44:32.196Z,1.45
2022-08-25T12:47:28.040Z,1.45
2022-08-25T12:50:32.712Z,1.20
2022-08-25T12:53:38.881Z,1.40
2022-08-25T12:56:43.131Z,1.48
2022-08-25T12:59:18.668Z,1.40
2022-08-25T13:02:11.678Z,1.60
2022-08-25T13:04:57.256Z,1.40
2022-08-25T13:07:42.069Z,1.90
2022-08-25T13:10:42.790Z,1.33
2022-08-25T13:13:24.451Z,1.40
2022-08-25T13:16:03.409Z,2.00
2022-08-25T13:18:34.303Z,2.03
2022-08-25T13:21:13.587Z,1.50
2022-08-25T13:23:42.911Z,1.25
2022-08-25T13:26:14.635Z,1.58
2022-08-25T13:28:42.170Z,1.40
2022-08-25T13:31:22.402Z,1.67
2022-08-25T13:33:57.630Z,1.60
2022-08-25T13:36:50.405Z,1.58
2022-08-25T13:39:45.204Z,1.60
2022-08-25T13:42:16.459Z,1.40
2022-08-25T13:44:52.020Z,1.70
2022-08-25T13:47:45.469Z,1.50
2022-08-25T13:50:31.203Z,1.65
2022-08-25T13:53:13.009Z,1.42
2022-08-25T13:55:50.975Z,1.55
2022-08-25T13:58:45.479Z,1.10
2022-08-25T14:01:22.994Z,1.53
2022-08-25T14:04:34.059Z,1.40
2022-08-25T14:07:34.318Z,1.38
2022-08-25T14:10:04.229Z,1.77
2022-08-25T14:12:34.886Z,1.33
2022-08-25T14:15:08.282Z,1.60
2022-08-25T14:17:39.333Z,1.50
2022-08-25T14:20:29.704Z,1.70
2022-08-25T14:23:03.335Z,1.35
2022-08-25T14:25:32.530Z,1.20
2022-08-25T14:28:07.193Z,1.40
2022-08-25T14:30:37.014Z,1.88
2022-08-25T14:33:05.141Z,1.52
2022-08-25T14:35:33.947Z,1.60
2022-08-25T14:38:10.709Z,1.77
2022-08-25T14:40:37.949Z,1.53
2022-08-25T14:43:04.569Z,1.80
2022-08-25T14:45:31.912Z,1.60
2022-08-25T14:48:10.182Z,1.90
2022-08-25T14:50:41.218Z,1.95
2022-08-25T14:53:11.040Z,1.60
2022-08-25T14:55:38.798Z,1.63
2022-08-25T14:58:06.812Z,1.63
2022-08-25T15:00:37.321Z,1.80
2022-08-25T15:03:04.075Z,1.70
2022-08-25T15:05:31.842Z,1.83
2022-08-25T15:08:17.034Z,1.38
2022-08-25T15:10:44.150Z,1.90
2022-08-25T15:13:10.897Z,1.80
2022-08-25T15:15:53.029Z,1.77
2022-08-25T15:18:20.714Z,1.50
2022-08-25T15:20:47.447Z,1.50
2022-08-25T15:23:17.650Z,1.55
2022-08-25T15:25:46.710Z,1.90
2022-08-25T15:28:17.359Z,1.80
2022-08-25T15:30:45.935Z,1.80
2022-08-25T15:33:14.019Z,1.92
2022-08-25T15:35:41.007Z,1.42
2022-08-25T15:38:08.134Z,1.60
2022-08-25T15:40:37.463Z,1.60
2022-08-25T15:43:04.117Z,2.30
2022-08-25T15:45:31.108Z,1.92
2022-08-25T15:47:57.997Z,1.70
2022-08-25T15:50:26.737Z,1.67
2022-08-25T15:52:53.536Z,2.17
2022-08-25T15:55:20.847Z,1.90
2022-08-25T15:57:49.494Z,1.95
2022-08-25T16:00:18.014Z,1.60
2022-08-25T16:02:45.466Z,1.50
2022-08-25T16:05:13.676Z,1.80
2022-08-25T16:07:42.909Z,2.00
2022-08-25T16:10:10.370Z,1.90
2022-08-25T16:12:37.581Z,1.70
2022-08-25T16:15:04.425Z,2.60
2022-08-25T16:17:30.994Z,2.35
2022-08-25T16:19:57.558Z,2.03
2022-08-25T16:22:24.215Z,1.77
2022-08-25T16:24:52.750Z,1.83
2022-08-25T16:27:19.901Z,2.33
2022-08-25T16:29:47.242Z,1.83
2022-08-25T16:32:14.664Z,1.73
2022-08-25T16:34:44.264Z,1.83
2022-08-25T16:37:11.209Z,2.00
2022-08-25T16:39:39.948Z,2.30
2022-08-25T16:42:07.977Z,2.13
2022-08-25T16:44:34.601Z,2.40
2022-08-25T16:47:01.429Z,2.08
2022-08-25T16:49:28.058Z,2.17
2022-08-25T16:51:57.424Z,2.25
2022-08-25T16:54:44.744Z,3.05
2022-08-25T16:57:11.523Z,2.70
2022-08-25T16:59:38.123Z,2.60
2022-08-25T17:02:06.466Z,2.83
2022-08-25T17:04:33.043Z,2.58
2022-08-25T17:06:59.861Z,2.30
2022-08-25T17:09:26.486Z,2.43
2022-08-25T17:11:56.673Z,2.03
2022-08-25T17:14:23.926Z,2.63
2022-08-25T17:16:54.533Z,2.80
2022-08-25T17:19:21.274Z,2.20
2022-08-25T17:21:50.271Z,2.57
2022-08-25T17:24:17.186Z,2.60
2022-08-25T17:26:46.330Z,2.88
2022-08-25T17:29:13.202Z,2.10
2022-08-25T17:31:40.299Z,3.00
2022-08-25T17:34:10.569Z,3.53
2022-08-25T17:36:38.522Z,3.20
2022-08-25T17:39:08.801Z,3.03
2022-08-25T17:41:37.736Z,3.53
2022-08-25T17:44:05.334Z,3.35
2022-08-25T17:46:32.444Z,2.87
2022-08-25T17:48:59.014Z,2.70
2022-08-25T17:51:25.670Z,3.20
2022-08-25T17:53:52.811Z,3.80
2022-08-25T17:56:22.291Z,3.85
2022-08-25T17:58:50.653Z,3.70
2022-08-25T18:01:20.495Z,3.58
2022-08-25T18:03:49.187Z,3.50
2022-08-25T18:06:16.375Z,3.58
2022-08-25T18:08:44.234Z,3.88
2022-08-25T18:11:11.524Z,3.77
2022-08-25T18:13:38.574Z,3.95
2022-08-25T18:16:05.868Z,3.70
2022-08-25T18:18:34.236Z,3.97
2022-08-25T18:21:01.690Z,4.38
2022-08-25T18:23:28.682Z,4.30
2022-08-25T18:26:01.074Z,4.20
2022-08-25T18:28:28.799Z,4.30
2022-08-25T18:30:56.283Z,4.43
2022-08-25T18:33:23.390Z,4.97
2022-08-25T18:35:49.906Z,4.13
2022-08-25T18:38:36.278Z,5.43
2022-08-25T18:41:06.656Z,4.80
2022-08-25T18:43:35.022Z,4.72
2022-08-25T18:46:04.753Z,5.13
2022-08-25T18:48:32.450Z,4.67
2022-08-25T18:51:00.705Z,5.82
2022-08-25T18:53:36.747Z,6.25
2022-08-25T18:56:04.767Z,5.70
2022-08-25T18:58:31.678Z,5.60
2022-08-25T19:00:58.236Z,5.50
2022-08-25T19:03:24.978Z,5.50
2022-08-25T19:05:57.300Z,6.00
2022-08-25T19:08:24.804Z,6.85
2022-08-25T19:10:53.504Z,7.15
2022-08-25T19:13:22.371Z,8.20
2022-08-25T19:15:51.311Z,8.00
2022-08-25T19:18:18.550Z,8.30
2022-08-25T19:20:45.400Z,8.05
2022-08-25T19:23:13.132Z,8.73
2022-08-25T19:25:41.542Z,8.37
2022-08-25T19:28:12.199Z,9.25
2022-08-25T19:30:39.331Z,9.50
2022-08-25T19:33:31.352Z,10.85
2022-08-25T19:36:06.288Z,10.60
2022-08-25T19:38:36.346Z,12.83
2022-08-25T19:41:10.627Z,12.90
2022-08-25T19:43:55.787Z,13.43
2022-08-25T19:46:26.130Z,13.48
2022-08-25T19:49:06.872Z,14.27
2022-08-25T19:51:34.693Z,15.97
2022-08-25T19:54:02.830Z,16.02
2022-08-25T19:56:30.082Z,14.27
2022-08-25T19:58:57.308Z,20.15
2022-08-25T20:01:24.296Z,23.77
2022-08-25T20:03:52.080Z,21.57
2022-08-25T20:06:19.134Z,21.23
2022-08-25T20:08:45.604Z,22.92
2022-08-25T20:11:12.182Z,25.17
2022-08-25T20:13:38.757Z,26.02
2022-08-25T20:16:05.679Z,26.83
2022-08-25T20:18:32.569Z,28.77
2022-08-25T20:20:59.333Z,28.65
2022-08-25T20:23:44.445Z,28.30
2022-08-25T20:26:10.991Z,29.80
2022-08-25T20:28:37.729Z,28.33
2022-08-25T20:31:04.280Z,26.63
2022-08-25T20:33:32.861Z,25.88
2022-08-25T20:35:59.473Z,25.90
2022-08-25T20:38:29.725Z,26.45
2022-08-25T20:40:56.245Z,24.77
2022-08-25T20:43:23.200Z,24.73
2022-08-25T20:45:49.834Z,22.98
2022-08-25T20:48:16.461Z,22.70
2022-08-25T20:50:42.932Z,20.50
2022-08-25T20:53:10.128Z,19.90
2022-08-25T20:55:43.808Z,20.48
2022-08-25T20:58:10.603Z,19.13
2022-08-25T21:00:37.082Z,19.15
2022-08-25T21:03:03.614Z,19.88
2022-08-25T21:05:30.193Z,20.70
2022-08-25T21:07:58.265Z,18.42
2022-08-25T21:10:24.842Z,18.33
2022-08-25T21:12:53.248Z,16.50
2022-08-25T21:15:20.462Z,17.23
2022-08-25T21:17:53.071Z,16.20
2022-08-25T21:20:25.245Z,14.20
2022-08-25T21:22:52.274Z,14.43
2022-08-25T21:25:21.226Z,13.57
2022-08-25T21:27:48.096Z,14.25
2022-08-25T21:30:16.162Z,13.83
2022-08-25T21:32:53.799Z,13.60
2022-08-25T21:35:22.519Z,12.15
2022-08-25T21:37:53.313Z,12.38
2022-08-25T21:40:21.435Z,13.52
2022-08-25T21:42:48.789Z,13.43
2022-08-25T21:45:15.503Z,14.43
2022-08-25T21:47:42.743Z,13.52
2022-08-25T21:50:12.081Z,12.23
2022-08-25T21:52:39.134Z,12.10
2022-08-25T21:55:08.071Z,11.97
2022-08-25T21:57:42.406Z,11.40
2022-08-25T22:00:12.408Z,10.77
2022-08-25T22:02:39.025Z,9.90
2022-08-25T22:05:09.362Z,10.82
2022-08-25T22:07:41.656Z,9.07
2022-08-25T22:10:16.702Z,8.88
2022-08-25T22:12:46.314Z,8.23
2022-08-25T22:15:14.527Z,8.07
2022-08-25T22:17:41.371Z,7.65
2022-08-25T22:20:08.905Z,6.93
2022-08-25T22:22:36.088Z,7.65
2022-08-25T22:25:03.657Z,6.18
2022-08-25T22:27:31.678Z,7.57
2022-08-25T22:29:58.473Z,6.55
2022-08-25T22:32:25.319Z,6.30
2022-08-25T22:34:51.903Z,6.20
2022-08-25T22:37:18.877Z,5.70
2022-08-25T22:39:46.020Z,6.25
2022-08-25T22:42:12.610Z,6.30
2022-08-25T22:44:40.338Z,6.50
2022-08-25T22:47:07.067Z,5.72
2022-08-25T22:49:35.417Z,5.45
2022-08-25T22:52:02.813Z,5.22
2022-08-25T22:54:29.851Z,5.72
2022-08-25T22:56:56.471Z,5.17
2022-08-25T22:59:23.203Z,5.25
2022-08-25T23:01:52.640Z,4.65
2022-08-25T23:04:21.671Z,4.78
2022-08-25T23:06:49.273Z,4.78
2022-08-25T23:09:16.115Z,4.20
2022-08-25T23:11:43.360Z,4.00
2022-08-25T23:14:11.131Z,5.15
2022-08-25T23:16:42.839Z,3.90
2022-08-25T23:19:10.977Z,3.95
2022-08-25T23:21:59.345Z,3.87
2022-08-25T23:24:29.398Z,3.55
2022-08-25T23:26:58.767Z,3.83
2022-08-25T23:29:25.475Z,3.72
2022-08-25T23:31:52.120Z,3.65
2022-08-25T23:34:21.605Z,3.50
2022-08-25T23:36:48.870Z,3.17
2022-08-25T23:39:15.656Z,3.15
2022-08-25T23:41:42.281Z,3.17
2022-08-25T23:44:09.338Z,2.92
2022-08-25T23:46:39.330Z,2.97
2022-08-25T23:49:08.425Z,3.42
2022-08-25T23:51:38.039Z,3.50
2022-08-25T23:54:09.535Z,3.05
2022-08-25T23:56:42.257Z,3.35
2022-08-25T23:59:13.031Z,4.03
